sensor_id;sensor_type;location;lat;lon;timestamp;temperature;humidity
18041;DHT22;9145;48.588;9.250;2022-11-20T00:01:04;6.50;99.90
18041;DHT22;9145;48.588;9.250;2022-11-20T00:03:31;6.50;99.90
18041;DHT22;9145;48.588;9.250;2022-11-20T00:06:00;6.40;99.90
18041;DHT22;9145;48.588;9.250;2022-11-20T00:08:26;6.40;99.90
18041;DHT22;9145;48.588;9.250;2022-11-20T00:10:53;6.40;99.90
18041;DHT22;9145;48.588;9.250;2022-11-20T00:13:22;6.30;99.90
18041;DHT22;9145;48.588;9.250;2022-11-20T00:15:50;6.30;99.90
18041;DHT22;9145;48.588;9.250;2022-11-20T00:18:22;6.20;99.90
18041;DHT22;9145;48.588;9.250;2022-11-20T00:20:49;6.20;99.90
18041;DHT22;9145;48.588;9.250;2022-11-20T00:23:16;6.10;99.90
18041;DHT22;9145;48.588;9.250;2022-11-20T00:25:43;6.10;99.90
18041;DHT22;9145;48.588;9.250;2022-11-20T00:28:10;6.00;99.90
18041;DHT22;9145;48.588;9.250;2022-11-20T00:30:38;6.00;99.90
18041;DHT22;9145;48.588;9.250;2022-11-20T00:33:05;6.00;99.90
18041;DHT22;9145;48.588;9.250;2022-11-20T00:35:32;6.00;99.90
18041;DHT22;9145;48.588;9.250;2022-11-20T00:37:58;6.00;99.90
18041;DHT22;9145;48.588;9.250;2022-11-20T00:40:25;6.00;99.90
18041;DHT22;9145;48.588;9.250;2022-11-20T00:42:52;6.00;99.90
18041;DHT22;9145;48.588;9.250;2022-11-20T00:45:19;6.00;99.90
18041;DHT22;9145;48.588;9.250;2022-11-20T00:47:47;6.10;99.90
18041;DHT22;9145;48.588;9.250;2022-11-20T00:50:14;6.10;99.90
18041;DHT22;9145;48.588;9.250;2022-11-20T00:52:41;6.00;99.90
18041;DHT22;9145;48.588;9.250;2022-11-20T00:55:08;6.00;99.90
18041;DHT22;9145;48.588;9.250;2022-11-20T00:57:35;6.00;99.90
18041;DHT22;9145;48.588;9.250;2022-11-20T01:00:02;6.00;99.90
18041;DHT22;9145;48.588;9.250;2022-11-20T01:02:29;5.90;99.90
18041;DHT22;9145;48.588;9.250;2022-11-20T01:04:57;6.00;99.90
18041;DHT22;9145;48.588;9.250;2022-11-20T01:07:24;6.00;99.90
18041;DHT22;9145;48.588;9.250;2022-11-20T01:09:51;6.00;99.90
18041;DHT22;9145;48.588;9.250;2022-11-20T01:12:18;5.90;99.90
18041;DHT22;9145;48.588;9.250;2022-11-20T01:14:44;5.90;99.90
18041;DHT22;9145;48.588;9.250;2022-11-20T01:17:11;5.90;99.90
18041;DHT22;9145;48.588;9.250;2022-11-20T01:19:38;5.90;99.90
18041;DHT22;9145;48.588;9.250;2022-11-20T01:22:06;5.80;99.90
18041;DHT22;9145;48.588;9.250;2022-11-20T01:24:33;5.80;99.90
18041;DHT22;9145;48.588;9.250;2022-11-20T01:27:00;5.70;99.90
18041;DHT22;9145;48.588;9.250;2022-11-20T01:29:27;5.60;99.90
18041;DHT22;9145;48.588;9.250;2022-11-20T01:31:54;5.60;99.90
18041;DHT22;9145;48.588;9.250;2022-11-20T01:34:21;5.60;99.90
18041;DHT22;9145;48.588;9.250;2022-11-20T01:36:49;5.50;99.90
18041;DHT22;9145;48.588;9.250;2022-11-20T01:39:19;5.60;99.90
18041;DHT22;9145;48.588;9.250;2022-11-20T01:41:48;5.50;99.90
18041;DHT22;9145;48.588;9.250;2022-11-20T01:44:50;5.50;99.90
18041;DHT22;9145;48.588;9.250;2022-11-20T01:47:21;5.40;99.90
18041;DHT22;9145;48.588;9.250;2022-11-20T01:49:54;5.40;99.90
18041;DHT22;9145;48.588;9.250;2022-11-20T01:52:24;5.50;99.90
18041;DHT22;9145;48.588;9.250;2022-11-20T01:54:58;5.40;99.90
18041;DHT22;9145;48.588;9.250;2022-11-20T01:57:28;5.40;99.90
18041;DHT22;9145;48.588;9.250;2022-11-20T02:00:00;5.40;99.90
18041;DHT22;9145;48.588;9.250;2022-11-20T02:02:28;5.40;99.90
18041;DHT22;9145;48.588;9.250;2022-11-20T02:04:57;5.50;99.90
18041;DHT22;9145;48.588;9.250;2022-11-20T02:07:27;5.40;99.90
18041;DHT22;9145;48.588;9.250;2022-11-20T02:09:56;5.40;99.90
18041;DHT22;9145;48.588;9.250;2022-11-20T02:12:23;5.30;99.90
18041;DHT22;9145;48.588;9.250;2022-11-20T02:15:07;5.30;99.90
18041;DHT22;9145;48.588;9.250;2022-11-20T02:17:34;5.20;99.90
18041;DHT22;9145;48.588;9.250;2022-11-20T02:20:01;5.10;99.90
18041;DHT22;9145;48.588;9.250;2022-11-20T02:22:32;5.00;99.90
18041;DHT22;9145;48.588;9.250;2022-11-20T02:25:04;5.00;99.90
18041;DHT22;9145;48.588;9.250;2022-11-20T02:27:32;5.00;99.90
18041;DHT22;9145;48.588;9.250;2022-11-20T02:30:01;5.00;99.90
18041;DHT22;9145;48.588;9.250;2022-11-20T02:32:31;5.00;99.90
18041;DHT22;9145;48.588;9.250;2022-11-20T02:35:05;5.00;99.90
18041;DHT22;9145;48.588;9.250;2022-11-20T02:37:35;5.00;99.90
18041;DHT22;9145;48.588;9.250;2022-11-20T02:40:05;5.00;99.90
18041;DHT22;9145;48.588;9.250;2022-11-20T02:42:32;5.00;99.90
18041;DHT22;9145;48.588;9.250;2022-11-20T02:44:59;4.90;99.90
18041;DHT22;9145;48.588;9.250;2022-11-20T02:47:25;4.90;99.90
18041;DHT22;9145;48.588;9.250;2022-11-20T02:49:52;4.90;99.90
18041;DHT22;9145;48.588;9.250;2022-11-20T02:52:19;5.00;99.90
18041;DHT22;9145;48.588;9.250;2022-11-20T02:54:46;5.00;99.90
18041;DHT22;9145;48.588;9.250;2022-11-20T02:57:14;5.10;99.90
18041;DHT22;9145;48.588;9.250;2022-11-20T02:59:41;5.00;99.90
18041;DHT22;9145;48.588;9.250;2022-11-20T03:02:08;5.00;99.90
18041;DHT22;9145;48.588;9.250;2022-11-20T03:04:35;5.00;99.90
18041;DHT22;9145;48.588;9.250;2022-11-20T03:07:02;5.10;99.90
18041;DHT22;9145;48.588;9.250;2022-11-20T03:09:29;5.10;99.90
18041;DHT22;9145;48.588;9.250;2022-11-20T03:11:56;5.10;99.90
18041;DHT22;9145;48.588;9.250;2022-11-20T03:14:24;5.10;99.90
18041;DHT22;9145;48.588;9.250;2022-11-20T03:16:51;5.10;99.90
18041;DHT22;9145;48.588;9.250;2022-11-20T03:19:18;5.10;99.90
18041;DHT22;9145;48.588;9.250;2022-11-20T03:21:45;5.10;99.90
18041;DHT22;9145;48.588;9.250;2022-11-20T03:24:12;5.00;99.90
18041;DHT22;9145;48.588;9.250;2022-11-20T03:26:40;5.10;99.90
18041;DHT22;9145;48.588;9.250;2022-11-20T03:29:07;5.10;99.90
18041;DHT22;9145;48.588;9.250;2022-11-20T03:31:37;5.20;99.90
18041;DHT22;9145;48.588;9.250;2022-11-20T03:34:06;5.20;99.90
18041;DHT22;9145;48.588;9.250;2022-11-20T03:36:33;5.30;99.90
18041;DHT22;9145;48.588;9.250;2022-11-20T03:39:01;5.30;99.90
18041;DHT22;9145;48.588;9.250;2022-11-20T03:41:29;5.30;99.90
18041;DHT22;9145;48.588;9.250;2022-11-20T03:43:58;5.30;99.90
18041;DHT22;9145;48.588;9.250;2022-11-20T03:46:26;5.40;99.90
18041;DHT22;9145;48.588;9.250;2022-11-20T03:48:55;5.40;99.90
18041;DHT22;9145;48.588;9.250;2022-11-20T03:51:23;5.40;99.90
18041;DHT22;9145;48.588;9.250;2022-11-20T03:53:52;5.50;99.90
18041;DHT22;9145;48.588;9.250;2022-11-20T03:56:23;5.50;99.90
18041;DHT22;9145;48.588;9.250;2022-11-20T03:58:50;5.60;99.90
18041;DHT22;9145;48.588;9.250;2022-11-20T04:01:19;5.60;99.90
18041;DHT22;9145;48.588;9.250;2022-11-20T04:03:46;5.60;99.90
18041;DHT22;9145;48.588;9.250;2022-11-20T04:06:16;5.60;99.90
18041;DHT22;9145;48.588;9.250;2022-11-20T04:08:43;5.60;99.90
18041;DHT22;9145;48.588;9.250;2022-11-20T04:11:11;5.70;99.90
18041;DHT22;9145;48.588;9.250;2022-11-20T04:13:39;5.70;99.90
18041;DHT22;9145;48.588;9.250;2022-11-20T04:16:07;5.80;99.90
18041;DHT22;9145;48.588;9.250;2022-11-20T04:18:35;5.70;99.90
18041;DHT22;9145;48.588;9.250;2022-11-20T04:21:02;5.80;99.90
18041;DHT22;9145;48.588;9.250;2022-11-20T04:23:31;5.80;99.90
18041;DHT22;9145;48.588;9.250;2022-11-20T04:26:01;5.80;99.90
18041;DHT22;9145;48.588;9.250;2022-11-20T04:28:28;5.80;99.90
18041;DHT22;9145;48.588;9.250;2022-11-20T04:31:02;5.90;99.90
18041;DHT22;9145;48.588;9.250;2022-11-20T04:33:29;5.90;99.90
18041;DHT22;9145;48.588;9.250;2022-11-20T04:36:00;6.00;99.90
18041;DHT22;9145;48.588;9.250;2022-11-20T04:38:27;5.90;99.90
18041;DHT22;9145;48.588;9.250;2022-11-20T04:40:57;5.90;99.90
18041;DHT22;9145;48.588;9.250;2022-11-20T04:43:25;6.00;99.90
18041;DHT22;9145;48.588;9.250;2022-11-20T04:45:52;6.00;99.90
18041;DHT22;9145;48.588;9.250;2022-11-20T04:48:19;6.00;99.90
18041;DHT22;9145;48.588;9.250;2022-11-20T04:50:46;6.00;99.90
18041;DHT22;9145;48.588;9.250;2022-11-20T04:53:14;6.00;99.90
18041;DHT22;9145;48.588;9.250;2022-11-20T04:55:41;6.00;99.90
18041;DHT22;9145;48.588;9.250;2022-11-20T04:58:09;6.00;99.90
18041;DHT22;9145;48.588;9.250;2022-11-20T05:00:36;6.10;99.90
18041;DHT22;9145;48.588;9.250;2022-11-20T05:03:03;6.10;99.90
18041;DHT22;9145;48.588;9.250;2022-11-20T05:05:30;6.10;99.90
18041;DHT22;9145;48.588;9.250;2022-11-20T05:07:57;6.10;99.90
18041;DHT22;9145;48.588;9.250;2022-11-20T05:10:25;6.10;99.90
18041;DHT22;9145;48.588;9.250;2022-11-20T05:12:52;6.10;99.90
18041;DHT22;9145;48.588;9.250;2022-11-20T05:15:20;6.10;99.90
18041;DHT22;9145;48.588;9.250;2022-11-20T05:17:48;6.10;99.90
18041;DHT22;9145;48.588;9.250;2022-11-20T05:20:15;6.10;99.90
18041;DHT22;9145;48.588;9.250;2022-11-20T05:22:42;6.10;99.90
18041;DHT22;9145;48.588;9.250;2022-11-20T05:25:09;6.20;99.90
18041;DHT22;9145;48.588;9.250;2022-11-20T05:27:36;6.20;99.90
18041;DHT22;9145;48.588;9.250;2022-11-20T05:30:03;6.10;99.90
18041;DHT22;9145;48.588;9.250;2022-11-20T05:32:32;6.20;99.90
18041;DHT22;9145;48.588;9.250;2022-11-20T05:34:59;6.20;99.90
18041;DHT22;9145;48.588;9.250;2022-11-20T05:37:25;6.20;99.90
18041;DHT22;9145;48.588;9.250;2022-11-20T05:39:52;6.30;99.90
18041;DHT22;9145;48.588;9.250;2022-11-20T05:42:19;6.30;99.90
18041;DHT22;9145;48.588;9.250;2022-11-20T05:44:58;6.30;99.90
18041;DHT22;9145;48.588;9.250;2022-11-20T05:47:25;6.30;99.90
18041;DHT22;9145;48.588;9.250;2022-11-20T05:49:53;6.30;99.90
18041;DHT22;9145;48.588;9.250;2022-11-20T05:52:20;6.30;99.90
18041;DHT22;9145;48.588;9.250;2022-11-20T05:54:47;6.20;99.90
18041;DHT22;9145;48.588;9.250;2022-11-20T05:57:14;6.20;99.90
18041;DHT22;9145;48.588;9.250;2022-11-20T05:59:41;6.20;99.90
18041;DHT22;9145;48.588;9.250;2022-11-20T06:02:08;6.20;99.90
18041;DHT22;9145;48.588;9.250;2022-11-20T06:04:35;6.20;99.90
18041;DHT22;9145;48.588;9.250;2022-11-20T06:07:04;6.20;99.90
18041;DHT22;9145;48.588;9.250;2022-11-20T06:09:32;6.10;99.90
18041;DHT22;9145;48.588;9.250;2022-11-20T06:11:59;6.20;99.90
18041;DHT22;9145;48.588;9.250;2022-11-20T06:14:26;6.10;99.90
18041;DHT22;9145;48.588;9.250;2022-11-20T06:16:52;6.10;99.90
18041;DHT22;9145;48.588;9.250;2022-11-20T06:19:19;6.10;99.90
18041;DHT22;9145;48.588;9.250;2022-11-20T06:21:47;6.20;99.90
18041;DHT22;9145;48.588;9.250;2022-11-20T06:24:16;6.10;99.90
18041;DHT22;9145;48.588;9.250;2022-11-20T06:26:43;6.10;99.90
18041;DHT22;9145;48.588;9.250;2022-11-20T06:29:12;6.10;99.90
18041;DHT22;9145;48.588;9.250;2022-11-20T06:31:39;6.10;99.90
18041;DHT22;9145;48.588;9.250;2022-11-20T06:34:08;6.20;99.90
18041;DHT22;9145;48.588;9.250;2022-11-20T06:36:35;6.10;99.90
18041;DHT22;9145;48.588;9.250;2022-11-20T06:39:02;6.10;99.90
18041;DHT22;9145;48.588;9.250;2022-11-20T06:41:30;6.00;99.90
18041;DHT22;9145;48.588;9.250;2022-11-20T06:43:57;6.00;99.90
18041;DHT22;9145;48.588;9.250;2022-11-20T06:46:24;6.00;99.90
18041;DHT22;9145;48.588;9.250;2022-11-20T06:48:51;6.00;99.90
18041;DHT22;9145;48.588;9.250;2022-11-20T06:51:18;6.00;99.90
18041;DHT22;9145;48.588;9.250;2022-11-20T06:53:46;6.00;99.90
18041;DHT22;9145;48.588;9.250;2022-11-20T06:56:14;6.00;99.90
18041;DHT22;9145;48.588;9.250;2022-11-20T06:58:45;6.00;99.90
18041;DHT22;9145;48.588;9.250;2022-11-20T07:01:13;6.00;99.90
18041;DHT22;9145;48.588;9.250;2022-11-20T07:03:41;6.00;99.90
18041;DHT22;9145;48.588;9.250;2022-11-20T07:06:08;6.00;99.90
18041;DHT22;9145;48.588;9.250;2022-11-20T07:08:35;6.00;99.90
18041;DHT22;9145;48.588;9.250;2022-11-20T07:11:04;6.00;99.90
18041;DHT22;9145;48.588;9.250;2022-11-20T07:13:32;6.00;99.90
18041;DHT22;9145;48.588;9.250;2022-11-20T07:16:05;6.00;99.90
18041;DHT22;9145;48.588;9.250;2022-11-20T07:18:33;6.10;99.90
18041;DHT22;9145;48.588;9.250;2022-11-20T07:21:00;6.00;99.90
18041;DHT22;9145;48.588;9.250;2022-11-20T07:23:28;6.00;99.90
18041;DHT22;9145;48.588;9.250;2022-11-20T07:25:54;6.00;99.90
18041;DHT22;9145;48.588;9.250;2022-11-20T07:28:21;5.90;99.90
18041;DHT22;9145;48.588;9.250;2022-11-20T07:30:51;5.90;99.90
18041;DHT22;9145;48.588;9.250;2022-11-20T07:33:20;6.00;99.90
18041;DHT22;9145;48.588;9.250;2022-11-20T07:35:47;6.00;99.90
18041;DHT22;9145;48.588;9.250;2022-11-20T07:38:14;6.00;99.90
18041;DHT22;9145;48.588;9.250;2022-11-20T07:40:40;6.00;99.90
18041;DHT22;9145;48.588;9.250;2022-11-20T07:43:07;6.00;99.90
18041;DHT22;9145;48.588;9.250;2022-11-20T07:45:34;6.00;99.90
18041;DHT22;9145;48.588;9.250;2022-11-20T07:48:01;6.00;99.90
18041;DHT22;9145;48.588;9.250;2022-11-20T07:50:29;6.10;99.90
18041;DHT22;9145;48.588;9.250;2022-11-20T07:53:01;6.10;99.90
18041;DHT22;9145;48.588;9.250;2022-11-20T07:55:28;6.10;99.90
18041;DHT22;9145;48.588;9.250;2022-11-20T07:57:55;6.10;99.90
18041;DHT22;9145;48.588;9.250;2022-11-20T08:00:23;6.20;99.90
18041;DHT22;9145;48.588;9.250;2022-11-20T08:02:49;6.20;99.90
18041;DHT22;9145;48.588;9.250;2022-11-20T08:05:16;6.20;99.90
18041;DHT22;9145;48.588;9.250;2022-11-20T08:07:45;6.30;99.90
18041;DHT22;9145;48.588;9.250;2022-11-20T08:10:13;6.30;99.90
18041;DHT22;9145;48.588;9.250;2022-11-20T08:12:44;6.30;99.90
18041;DHT22;9145;48.588;9.250;2022-11-20T08:15:29;6.40;99.90
18041;DHT22;9145;48.588;9.250;2022-11-20T08:18:00;6.30;99.90
18041;DHT22;9145;48.588;9.250;2022-11-20T08:20:27;6.40;99.90
18041;DHT22;9145;48.588;9.250;2022-11-20T08:22:59;6.50;99.90
18041;DHT22;9145;48.588;9.250;2022-11-20T08:25:26;6.50;99.90
18041;DHT22;9145;48.588;9.250;2022-11-20T08:27:53;6.50;99.90
18041;DHT22;9145;48.588;9.250;2022-11-20T08:30:20;6.50;99.90
18041;DHT22;9145;48.588;9.250;2022-11-20T08:32:47;6.50;99.90
18041;DHT22;9145;48.588;9.250;2022-11-20T08:35:14;6.50;99.90
18041;DHT22;9145;48.588;9.250;2022-11-20T08:37:41;6.50;99.90
18041;DHT22;9145;48.588;9.250;2022-11-20T08:40:11;6.60;99.90
18041;DHT22;9145;48.588;9.250;2022-11-20T08:42:46;6.60;99.90
18041;DHT22;9145;48.588;9.250;2022-11-20T08:45:13;6.60;99.90
18041;DHT22;9145;48.588;9.250;2022-11-20T08:47:40;6.70;99.90
18041;DHT22;9145;48.588;9.250;2022-11-20T08:50:08;6.70;99.90
18041;DHT22;9145;48.588;9.250;2022-11-20T08:52:35;6.70;99.90
18041;DHT22;9145;48.588;9.250;2022-11-20T08:55:02;6.70;99.90
18041;DHT22;9145;48.588;9.250;2022-11-20T08:57:32;6.70;99.90
18041;DHT22;9145;48.588;9.250;2022-11-20T08:59:59;6.80;99.90
18041;DHT22;9145;48.588;9.250;2022-11-20T09:02:28;6.80;99.90
18041;DHT22;9145;48.588;9.250;2022-11-20T09:04:56;6.80;99.90
18041;DHT22;9145;48.588;9.250;2022-11-20T09:07:22;6.90;99.90
18041;DHT22;9145;48.588;9.250;2022-11-20T09:09:49;6.90;99.90
18041;DHT22;9145;48.588;9.250;2022-11-20T09:12:16;6.90;99.90
18041;DHT22;9145;48.588;9.250;2022-11-20T09:14:44;6.90;99.90
18041;DHT22;9145;48.588;9.250;2022-11-20T09:17:11;6.90;99.90
18041;DHT22;9145;48.588;9.250;2022-11-20T09:19:40;6.90;99.90
18041;DHT22;9145;48.588;9.250;2022-11-20T09:22:07;7.00;99.90
18041;DHT22;9145;48.588;9.250;2022-11-20T09:24:34;7.00;99.90
18041;DHT22;9145;48.588;9.250;2022-11-20T09:27:05;7.00;99.90
18041;DHT22;9145;48.588;9.250;2022-11-20T09:29:32;7.10;99.90
18041;DHT22;9145;48.588;9.250;2022-11-20T09:32:00;7.10;99.90
18041;DHT22;9145;48.588;9.250;2022-11-20T09:34:27;7.10;99.90
18041;DHT22;9145;48.588;9.250;2022-11-20T09:36:53;7.20;99.90
18041;DHT22;9145;48.588;9.250;2022-11-20T09:39:20;7.20;99.90
18041;DHT22;9145;48.588;9.250;2022-11-20T09:45:05;7.20;99.90
18041;DHT22;9145;48.588;9.250;2022-11-20T09:47:45;7.20;99.90
18041;DHT22;9145;48.588;9.250;2022-11-20T09:50:26;7.20;99.90
18041;DHT22;9145;48.588;9.250;2022-11-20T09:53:06;7.20;99.90
18041;DHT22;9145;48.588;9.250;2022-11-20T09:55:37;7.20;99.90
18041;DHT22;9145;48.588;9.250;2022-11-20T09:58:06;7.20;99.90
18041;DHT22;9145;48.588;9.250;2022-11-20T10:00:35;7.20;99.90
18041;DHT22;9145;48.588;9.250;2022-11-20T10:03:13;7.10;99.90
18041;DHT22;9145;48.588;9.250;2022-11-20T10:05:46;7.10;99.90
18041;DHT22;9145;48.588;9.250;2022-11-20T10:08:17;7.10;99.90
18041;DHT22;9145;48.588;9.250;2022-11-20T10:10:46;7.20;99.90
18041;DHT22;9145;48.588;9.250;2022-11-20T10:13:29;7.20;99.90
18041;DHT22;9145;48.588;9.250;2022-11-20T10:16:12;7.20;99.90
18041;DHT22;9145;48.588;9.250;2022-11-20T10:18:54;7.20;99.90
18041;DHT22;9145;48.588;9.250;2022-11-20T10:21:30;7.20;99.90
18041;DHT22;9145;48.588;9.250;2022-11-20T10:27:03;7.20;99.90
18041;DHT22;9145;48.588;9.250;2022-11-20T10:29:36;7.20;99.90
18041;DHT22;9145;48.588;9.250;2022-11-20T10:32:09;7.20;99.90
18041;DHT22;9145;48.588;9.250;2022-11-20T10:34:46;7.20;99.90
18041;DHT22;9145;48.588;9.250;2022-11-20T10:37:17;7.20;99.90
18041;DHT22;9145;48.588;9.250;2022-11-20T10:39:51;7.20;99.90
18041;DHT22;9145;48.588;9.250;2022-11-20T10:42:26;7.10;99.90
18041;DHT22;9145;48.588;9.250;2022-11-20T10:45:01;7.10;99.90
18041;DHT22;9145;48.588;9.250;2022-11-20T10:47:31;7.20;99.90
18041;DHT22;9145;48.588;9.250;2022-11-20T10:50:03;7.20;99.90
18041;DHT22;9145;48.588;9.250;2022-11-20T10:52:39;7.30;99.90
18041;DHT22;9145;48.588;9.250;2022-11-20T10:55:23;7.30;99.90
18041;DHT22;9145;48.588;9.250;2022-11-20T10:57:55;7.30;99.90
18041;DHT22;9145;48.588;9.250;2022-11-20T11:00:25;7.30;99.90
18041;DHT22;9145;48.588;9.250;2022-11-20T11:02:53;7.30;99.90
18041;DHT22;9145;48.588;9.250;2022-11-20T11:05:32;7.40;99.90
18041;DHT22;9145;48.588;9.250;2022-11-20T11:08:00;7.40;99.90
18041;DHT22;9145;48.588;9.250;2022-11-20T11:10:35;7.40;99.90
18041;DHT22;9145;48.588;9.250;2022-11-20T11:13:03;7.40;99.90
18041;DHT22;9145;48.588;9.250;2022-11-20T11:15:37;7.50;99.90
18041;DHT22;9145;48.588;9.250;2022-11-20T11:18:05;7.60;99.90
18041;DHT22;9145;48.588;9.250;2022-11-20T11:20:33;7.60;99.90
18041;DHT22;9145;48.588;9.250;2022-11-20T11:23:00;7.70;99.90
18041;DHT22;9145;48.588;9.250;2022-11-20T11:25:29;7.70;99.90
18041;DHT22;9145;48.588;9.250;2022-11-20T11:28:01;7.80;99.90
18041;DHT22;9145;48.588;9.250;2022-11-20T11:30:30;7.80;99.90
18041;DHT22;9145;48.588;9.250;2022-11-20T11:33:10;7.90;99.90
18041;DHT22;9145;48.588;9.250;2022-11-20T11:35:44;8.00;99.90
18041;DHT22;9145;48.588;9.250;2022-11-20T11:38:16;8.00;99.90
18041;DHT22;9145;48.588;9.250;2022-11-20T11:40:44;8.10;99.90
18041;DHT22;9145;48.588;9.250;2022-11-20T11:43:20;8.00;99.90
18041;DHT22;9145;48.588;9.250;2022-11-20T11:46:23;8.10;99.90
18041;DHT22;9145;48.588;9.250;2022-11-20T11:48:55;8.10;99.90
18041;DHT22;9145;48.588;9.250;2022-11-20T11:51:27;8.10;99.90
18041;DHT22;9145;48.588;9.250;2022-11-20T11:53:57;8.20;99.90
18041;DHT22;9145;48.588;9.250;2022-11-20T11:56:25;8.50;99.90
18041;DHT22;9145;48.588;9.250;2022-11-20T11:58:57;8.40;99.90
18041;DHT22;9145;48.588;9.250;2022-11-20T12:01:30;8.30;99.90
18041;DHT22;9145;48.588;9.250;2022-11-20T12:04:04;8.30;99.90
18041;DHT22;9145;48.588;9.250;2022-11-20T12:06:36;8.50;99.90
18041;DHT22;9145;48.588;9.250;2022-11-20T12:09:05;8.90;99.90
18041;DHT22;9145;48.588;9.250;2022-11-20T12:11:37;9.00;99.90
18041;DHT22;9145;48.588;9.250;2022-11-20T12:14:13;9.30;99.90
18041;DHT22;9145;48.588;9.250;2022-11-20T12:16:41;9.40;99.90
18041;DHT22;9145;48.588;9.250;2022-11-20T12:19:10;9.60;99.90
18041;DHT22;9145;48.588;9.250;2022-11-20T12:21:47;9.50;99.90
18041;DHT22;9145;48.588;9.250;2022-11-20T12:24:33;9.30;99.90
18041;DHT22;9145;48.588;9.250;2022-11-20T12:27:14;9.20;99.90
18041;DHT22;9145;48.588;9.250;2022-11-20T12:29:51;9.00;99.90
18041;DHT22;9145;48.588;9.250;2022-11-20T12:32:45;8.80;99.90
18041;DHT22;9145;48.588;9.250;2022-11-20T12:35:37;8.60;99.90
18041;DHT22;9145;48.588;9.250;2022-11-20T12:41:05;8.40;99.90
18041;DHT22;9145;48.588;9.250;2022-11-20T12:43:41;8.50;99.90
18041;DHT22;9145;48.588;9.250;2022-11-20T12:46:34;8.40;99.90
18041;DHT22;9145;48.588;9.250;2022-11-20T12:49:29;8.40;99.90
18041;DHT22;9145;48.588;9.250;2022-11-20T12:52:24;8.40;99.90
18041;DHT22;9145;48.588;9.250;2022-11-20T12:55:16;8.50;99.90
18041;DHT22;9145;48.588;9.250;2022-11-20T12:57:48;8.70;99.90
18041;DHT22;9145;48.588;9.250;2022-11-20T13:00:18;8.70;99.90
18041;DHT22;9145;48.588;9.250;2022-11-20T13:03:03;8.70;99.90
18041;DHT22;9145;48.588;9.250;2022-11-20T13:05:38;8.70;99.90
18041;DHT22;9145;48.588;9.250;2022-11-20T13:08:20;8.60;99.90
18041;DHT22;9145;48.588;9.250;2022-11-20T13:10:54;8.60;99.90
18041;DHT22;9145;48.588;9.250;2022-11-20T13:13:29;8.60;99.90
18041;DHT22;9145;48.588;9.250;2022-11-20T13:16:01;8.80;99.90
18041;DHT22;9145;48.588;9.250;2022-11-20T13:18:36;9.00;99.90
18041;DHT22;9145;48.588;9.250;2022-11-20T13:21:13;9.00;99.90
18041;DHT22;9145;48.588;9.250;2022-11-20T13:23:40;8.80;99.90
18041;DHT22;9145;48.588;9.250;2022-11-20T13:26:17;8.60;99.90
18041;DHT22;9145;48.588;9.250;2022-11-20T13:28:46;8.50;99.90
18041;DHT22;9145;48.588;9.250;2022-11-20T13:31:29;8.50;99.90
18041;DHT22;9145;48.588;9.250;2022-11-20T13:33:57;8.40;99.90
18041;DHT22;9145;48.588;9.250;2022-11-20T13:36:27;8.40;99.90
18041;DHT22;9145;48.588;9.250;2022-11-20T13:38:55;8.40;99.90
18041;DHT22;9145;48.588;9.250;2022-11-20T13:41:28;8.40;99.90
18041;DHT22;9145;48.588;9.250;2022-11-20T13:44:08;8.50;99.90
18041;DHT22;9145;48.588;9.250;2022-11-20T13:46:37;8.40;99.90
18041;DHT22;9145;48.588;9.250;2022-11-20T13:49:09;8.40;99.90
18041;DHT22;9145;48.588;9.250;2022-11-20T13:51:42;8.40;99.90
18041;DHT22;9145;48.588;9.250;2022-11-20T13:54:36;8.40;99.90
18041;DHT22;9145;48.588;9.250;2022-11-20T13:57:25;8.50;99.90
18041;DHT22;9145;48.588;9.250;2022-11-20T13:59:59;8.40;99.90
18041;DHT22;9145;48.588;9.250;2022-11-20T14:02:29;8.50;99.90
18041;DHT22;9145;48.588;9.250;2022-11-20T14:04:57;8.60;99.90
18041;DHT22;9145;48.588;9.250;2022-11-20T14:07:32;8.50;99.90
18041;DHT22;9145;48.588;9.250;2022-11-20T14:09:59;8.50;99.90
18041;DHT22;9145;48.588;9.250;2022-11-20T14:12:30;8.40;99.90
18041;DHT22;9145;48.588;9.250;2022-11-20T14:14:58;8.30;99.90
18041;DHT22;9145;48.588;9.250;2022-11-20T14:17:30;8.40;99.90
18041;DHT22;9145;48.588;9.250;2022-11-20T14:19:59;8.40;99.90
18041;DHT22;9145;48.588;9.250;2022-11-20T14:22:27;8.30;99.90
18041;DHT22;9145;48.588;9.250;2022-11-20T14:25:03;8.20;99.90
18041;DHT22;9145;48.588;9.250;2022-11-20T14:27:34;8.20;99.90
18041;DHT22;9145;48.588;9.250;2022-11-20T14:30:03;8.10;99.90
18041;DHT22;9145;48.588;9.250;2022-11-20T14:32:31;8.10;99.90
18041;DHT22;9145;48.588;9.250;2022-11-20T14:35:06;8.20;99.90
18041;DHT22;9145;48.588;9.250;2022-11-20T14:37:36;8.20;99.90
18041;DHT22;9145;48.588;9.250;2022-11-20T14:40:21;8.40;99.90
18041;DHT22;9145;48.588;9.250;2022-11-20T14:42:49;8.50;99.90
18041;DHT22;9145;48.588;9.250;2022-11-20T14:45:17;8.50;99.90
18041;DHT22;9145;48.588;9.250;2022-11-20T14:47:45;8.40;99.90
18041;DHT22;9145;48.588;9.250;2022-11-20T14:50:14;8.30;99.90
18041;DHT22;9145;48.588;9.250;2022-11-20T14:52:50;8.20;99.90
18041;DHT22;9145;48.588;9.250;2022-11-20T14:55:26;8.20;99.90
18041;DHT22;9145;48.588;9.250;2022-11-20T14:58:00;8.10;99.90
18041;DHT22;9145;48.588;9.250;2022-11-20T15:00:28;8.10;99.90
18041;DHT22;9145;48.588;9.250;2022-11-20T15:02:55;8.10;99.90
18041;DHT22;9145;48.588;9.250;2022-11-20T15:05:24;8.10;99.90
18041;DHT22;9145;48.588;9.250;2022-11-20T15:08:04;8.00;99.90
18041;DHT22;9145;48.588;9.250;2022-11-20T15:10:32;8.00;99.90
18041;DHT22;9145;48.588;9.250;2022-11-20T15:13:02;7.90;99.90
18041;DHT22;9145;48.588;9.250;2022-11-20T15:15:32;7.80;99.90
18041;DHT22;9145;48.588;9.250;2022-11-20T15:18:02;7.80;99.90
18041;DHT22;9145;48.588;9.250;2022-11-20T15:20:31;7.70;99.90
18041;DHT22;9145;48.588;9.250;2022-11-20T15:22:59;7.70;99.90
18041;DHT22;9145;48.588;9.250;2022-11-20T15:25:26;7.60;99.90
18041;DHT22;9145;48.588;9.250;2022-11-20T15:27:55;7.60;99.90
18041;DHT22;9145;48.588;9.250;2022-11-20T15:30:24;7.60;99.90
18041;DHT22;9145;48.588;9.250;2022-11-20T15:32:51;7.60;99.90
18041;DHT22;9145;48.588;9.250;2022-11-20T15:35:18;7.50;99.90
18041;DHT22;9145;48.588;9.250;2022-11-20T15:37:45;7.60;99.90
18041;DHT22;9145;48.588;9.250;2022-11-20T15:40:12;7.60;99.90
18041;DHT22;9145;48.588;9.250;2022-11-20T15:42:39;7.60;99.90
18041;DHT22;9145;48.588;9.250;2022-11-20T15:45:30;7.70;99.90
18041;DHT22;9145;48.588;9.250;2022-11-20T15:47:57;7.70;99.90
18041;DHT22;9145;48.588;9.250;2022-11-20T15:50:27;7.70;99.90
18041;DHT22;9145;48.588;9.250;2022-11-20T15:52:55;7.70;99.90
18041;DHT22;9145;48.588;9.250;2022-11-20T15:55:22;7.70;99.90
18041;DHT22;9145;48.588;9.250;2022-11-20T15:57:49;7.70;99.90
18041;DHT22;9145;48.588;9.250;2022-11-20T16:00:17;7.60;99.90
18041;DHT22;9145;48.588;9.250;2022-11-20T16:02:45;7.60;99.90
18041;DHT22;9145;48.588;9.250;2022-11-20T16:05:13;7.60;99.90
18041;DHT22;9145;48.588;9.250;2022-11-20T16:07:40;7.60;99.90
18041;DHT22;9145;48.588;9.250;2022-11-20T16:10:08;7.60;99.90
18041;DHT22;9145;48.588;9.250;2022-11-20T16:12:34;7.60;99.90
18041;DHT22;9145;48.588;9.250;2022-11-20T16:15:19;7.60;99.90
18041;DHT22;9145;48.588;9.250;2022-11-20T16:18:04;7.60;99.90
18041;DHT22;9145;48.588;9.250;2022-11-20T16:20:31;7.50;99.90
18041;DHT22;9145;48.588;9.250;2022-11-20T16:22:58;7.50;99.90
18041;DHT22;9145;48.588;9.250;2022-11-20T16:25:27;7.40;99.90
18041;DHT22;9145;48.588;9.250;2022-11-20T16:27:53;7.40;99.90
18041;DHT22;9145;48.588;9.250;2022-11-20T16:30:20;7.40;99.90